aviador You're here:

LFPB Decoded Metar

PARIS LE BOURGET in FRANCE
Report Time2017-10-22 17:00:00
UTC Time2017-10-22 17:17:04
Flight Rules vfr VFR
Wind260° at 10 kt
W.Decomp.*RWY 27: 9.9 kt HW 1.6 kt LCW
RWY 25: 9.8 kt HW 1.9 kt RCW
RWY 21: 6.3 kt HW 7.8 kt RCW
W.Rank260° ranks 3
Current wind is above 260° avg. (7.2)
Visibility9999 m
Phenomena:N/A
Clouds:Few 045 Hf
Overcast 096 Hf
Expected CloudBase > 2,400 ft AGL from Temp-Dew spread
Ceiling9,600 ft
Temp12°C (ISA -3)
Dew Point06°C (67% RH)
AAT7.5°C
QNH1019 hPa
Density Alt-167 ft
Elevation213 ft
Report Wrong Elevation
Raw Report
LFPB 221700Z AUTO 26010KT 9999 FEW045 OVC096 12/06 Q1019 NOSIG=

Extra information for LFPB:More info

Metar Taf Metar & Taf Last 4 Metars F.Rules Stats Wind Profile Meteogram Temp Stats Airport Information Weather charts Add Link Nearby VenuesMetar ALERT Operation Metar Decoded Social comments